ロサンゼルス の空港の天気 - METARとTAF

ロサンゼルス国際空港 ( KLAX / LAX ) - アメリカ カリフォルニア州ロサンゼルス
飛行場実況気象(Metar)
観測時間11/17 09:53 PST (11/17 17:53 UTC)
風向・風速東南東 3m/s
視程10km以上
天気現象
少しの雲 雲底高度 400m
全天の4割程度の雲 雲底高度 4880m
全天の8割程度の雲 雲底高度 6710m
全天の8割程度の雲 雲底高度 9140m
気温18.3℃
湿度65%
気圧1018hPa
METARKLAX 171753Z 12005KT 8SM FEW013 SCT160 BKN220 BKN300 18/12 A3007 RMK AO2 SLP180 T01830117 10183 20144 51010
過去の天気等 Google飛行場航空写真 Wunderground天気予報

過去48時間のMETAR

飛行場予報(TAF)
発表時間: 11/17 09:43 PST (11/17 17:43 UTC)
予報対象時間: 17日10時 PST ~ 18日16時 PST
風向・風速不定 3m/s
視程10km以上
少しの雲 雲底高度 400m
全天の8割程度の雲 雲底高度 7620m
17日20時 PST から
風向・風速不定 2m/s
視程4830m
天気現象もや
全天の8割程度の雲 雲底高度 210m
18日4時 PST から
風向・風速不定 2m/s
視程8050m
天気現象もや
全天を覆う雲 雲底高度 300m
18日10時 PST から
風向・風速西 3m/s
視程10km以上
天気現象煙霧
全天の4割程度の雲 雲底高度 430m
18日12時 PST から
風向・風速西 5m/s
視程10km以上
全天の8割程度の雲 雲底高度 6100m
KLAX 171743Z 1718/1824 VRB05KT P6SM FEW013 BKN250
FM180400 VRB03KT 3SM BR BKN007
FM181200 VRB03KT 5SM BR OVC010
FM181800 26006KT 6SM HZ SCT014
FM182000 26010KT P6SM BKN200